createdAt,value
2023-05-14T00:01:52.170Z,2.90
2023-05-14T00:04:22.555Z,3.97
2023-05-14T00:06:49.833Z,6.38
2023-05-14T00:09:17.254Z,3.53
2023-05-14T00:11:44.650Z,3.10
2023-05-14T00:14:12.013Z,6.60
2023-05-14T00:16:39.310Z,3.97
2023-05-14T00:19:06.705Z,5.53
2023-05-14T00:21:34.508Z,3.03
2023-05-14T00:24:01.837Z,5.50
2023-05-14T00:26:29.098Z,2.05
2023-05-14T00:28:56.555Z,4.82
2023-05-14T00:31:24.035Z,4.53
2023-05-14T00:33:51.305Z,3.15
2023-05-14T00:36:18.455Z,5.90
2023-05-14T00:38:45.815Z,5.28
2023-05-14T00:41:13.221Z,7.57
2023-05-14T00:43:41.045Z,3.53
2023-05-14T00:46:08.806Z,2.78
2023-05-14T00:48:36.264Z,4.53
2023-05-14T00:51:03.805Z,5.03
2023-05-14T00:53:31.588Z,9.02
2023-05-14T00:55:59.347Z,3.22
2023-05-14T00:58:26.686Z,3.20
2023-05-14T01:00:53.951Z,3.88
2023-05-14T01:03:21.515Z,5.30
2023-05-14T01:06:07.477Z,6.32
2023-05-14T01:08:35.144Z,8.48
2023-05-14T01:11:11.682Z,6.40
2023-05-14T01:13:56.224Z,4.22
2023-05-14T01:16:28.277Z,6.45
2023-05-14T01:19:08.186Z,4.40
2023-05-14T01:21:42.977Z,7.47
2023-05-14T01:24:10.750Z,6.30
2023-05-14T01:26:38.330Z,3.67
2023-05-14T01:29:22.464Z,7.22
2023-05-14T01:31:51.494Z,3.95
2023-05-14T01:34:23.309Z,4.38
2023-05-14T01:36:52.366Z,9.45
2023-05-14T01:39:20.537Z,6.60
2023-05-14T01:41:48.972Z,4.47
2023-05-14T01:44:16.628Z,4.47
2023-05-14T01:46:43.951Z,3.72
2023-05-14T01:49:11.307Z,4.63
2023-05-14T01:51:38.522Z,5.47
2023-05-14T01:54:05.956Z,4.47
2023-05-14T01:56:33.246Z,6.07
2023-05-14T01:59:00.485Z,5.72
2023-05-14T02:01:28.004Z,3.28
2023-05-14T02:03:55.482Z,3.60
2023-05-14T02:06:23.060Z,3.83
2023-05-14T02:08:51.057Z,11.52
2023-05-14T02:11:18.368Z,5.32
2023-05-14T02:13:45.667Z,8.52
2023-05-14T02:16:13.276Z,3.58
2023-05-14T02:18:40.881Z,4.30
2023-05-14T02:21:08.317Z,6.57
2023-05-14T02:23:41.428Z,2.90
2023-05-14T02:26:10.654Z,4.63
2023-05-14T02:28:37.981Z,4.85
2023-05-14T02:31:05.334Z,7.07
2023-05-14T02:33:32.958Z,5.03
2023-05-14T02:36:00.138Z,3.00
2023-05-14T02:38:28.181Z,5.43
2023-05-14T02:40:57.360Z,3.10
2023-05-14T02:43:24.652Z,4.15
2023-05-14T02:45:52.626Z,4.93
2023-05-14T02:48:20.071Z,4.05
2023-05-14T02:50:48.560Z,3.83
2023-05-14T02:53:15.900Z,8.10
2023-05-14T02:55:43.456Z,3.92
2023-05-14T02:58:11.229Z,3.85
2023-05-14T03:00:39.014Z,3.80
2023-05-14T03:03:06.787Z,2.85
2023-05-14T03:05:34.670Z,3.58
2023-05-14T03:08:01.954Z,3.40
2023-05-14T03:10:29.540Z,5.43
2023-05-14T03:12:56.952Z,3.55
2023-05-14T03:15:24.319Z,3.67
2023-05-14T03:17:51.930Z,6.00
2023-05-14T03:20:19.260Z,5.68
2023-05-14T03:22:47.199Z,6.68
2023-05-14T03:25:14.856Z,6.50
2023-05-14T03:27:42.162Z,8.63
2023-05-14T03:30:11.025Z,4.43
2023-05-14T03:32:38.356Z,5.60
2023-05-14T03:35:06.433Z,7.10
2023-05-14T03:37:33.591Z,7.20
2023-05-14T03:40:00.917Z,6.32
2023-05-14T03:42:28.219Z,3.80
2023-05-14T03:44:55.352Z,5.38
2023-05-14T03:47:22.571Z,5.90
2023-05-14T03:49:50.396Z,4.35
2023-05-14T03:52:17.902Z,6.50
2023-05-14T03:54:45.592Z,8.50
2023-05-14T03:57:13.264Z,3.78
2023-05-14T03:59:41.604Z,6.18
2023-05-14T04:02:08.990Z,6.80
2023-05-14T04:04:36.377Z,7.55
2023-05-14T04:07:03.788Z,3.75
2023-05-14T04:09:31.063Z,6.40
2023-05-14T04:11:58.423Z,6.78
2023-05-14T04:14:26.249Z,7.82
2023-05-14T04:16:53.654Z,8.30
2023-05-14T04:19:21.728Z,5.93
2023-05-14T04:21:48.926Z,5.90
2023-05-14T04:24:17.313Z,8.75
2023-05-14T04:26:44.781Z,3.83
2023-05-14T04:29:11.975Z,5.00
2023-05-14T04:31:39.840Z,4.38
2023-05-14T04:34:07.499Z,6.78
2023-05-14T04:36:34.810Z,6.43
2023-05-14T04:39:02.189Z,8.32
2023-05-14T04:41:29.491Z,6.50
2023-05-14T04:43:57.172Z,3.20
2023-05-14T04:46:24.812Z,2.58
2023-05-14T04:48:52.477Z,6.00
2023-05-14T04:51:19.904Z,7.32
2023-05-14T04:53:47.228Z,7.20
2023-05-14T04:56:14.571Z,7.57
2023-05-14T04:58:41.770Z,5.28
2023-05-14T05:01:09.414Z,6.75
2023-05-14T05:03:37.031Z,5.00
2023-05-14T05:06:04.779Z,4.22
2023-05-14T05:08:32.196Z,5.00
2023-05-14T05:10:59.541Z,7.30
2023-05-14T05:13:26.978Z,4.25
2023-05-14T05:15:54.332Z,6.68
2023-05-14T05:18:21.921Z,3.45
2023-05-14T05:20:49.303Z,7.72
2023-05-14T05:23:16.698Z,5.78
2023-05-14T05:25:44.090Z,6.80
2023-05-14T05:28:11.211Z,9.68
2023-05-14T05:30:38.697Z,5.53
2023-05-14T05:33:05.959Z,9.77
2023-05-14T05:35:33.603Z,5.53
2023-05-14T05:38:01.746Z,4.82
2023-05-14T05:40:29.648Z,4.00
2023-05-14T05:42:57.039Z,9.23
2023-05-14T05:45:24.397Z,6.20
2023-05-14T05:47:51.764Z,5.00
2023-05-14T05:50:19.970Z,7.28
2023-05-14T05:52:47.605Z,5.78
2023-05-14T05:55:15.034Z,5.57
2023-05-14T05:57:42.523Z,3.47
2023-05-14T06:00:13.364Z,6.90
2023-05-14T06:02:42.021Z,4.55
2023-05-14T06:05:10.515Z,3.45
2023-05-14T06:07:37.915Z,3.53
2023-05-14T06:10:05.606Z,4.47
2023-05-14T06:12:33.305Z,7.80
2023-05-14T06:15:00.712Z,4.22
2023-05-14T06:17:28.257Z,2.45
2023-05-14T06:19:55.655Z,3.28
2023-05-14T06:22:23.040Z,3.10
2023-05-14T06:24:50.463Z,6.10
2023-05-14T06:27:18.002Z,2.53
2023-05-14T06:29:45.458Z,1.92
2023-05-14T06:32:15.841Z,2.55
2023-05-14T06:34:44.136Z,2.65
2023-05-14T06:37:11.709Z,2.42
2023-05-14T06:39:39.498Z,2.65
2023-05-14T06:42:07.578Z,5.43
2023-05-14T06:44:35.096Z,1.92
2023-05-14T06:47:02.260Z,3.65
2023-05-14T06:49:29.365Z,1.50
2023-05-14T06:51:56.574Z,1.95
2023-05-14T06:54:24.042Z,1.55
2023-05-14T06:56:51.423Z,3.65
2023-05-14T06:59:18.636Z,3.20
2023-05-14T07:01:46.016Z,4.18
2023-05-14T07:04:13.228Z,1.52
2023-05-14T07:06:41.043Z,3.78
2023-05-14T07:09:08.421Z,2.05
2023-05-14T07:11:35.756Z,1.83
2023-05-14T07:14:03.121Z,2.83
2023-05-14T07:16:30.593Z,2.65
2023-05-14T07:18:57.896Z,1.40
2023-05-14T07:21:25.068Z,3.40
2023-05-14T07:23:52.579Z,1.30
2023-05-14T07:26:19.859Z,2.55
2023-05-14T07:28:47.148Z,1.42
2023-05-14T07:31:14.960Z,2.50
2023-05-14T07:33:42.152Z,3.30
2023-05-14T07:36:09.378Z,1.45
2023-05-14T07:38:36.827Z,1.90
2023-05-14T07:41:04.400Z,1.50
2023-05-14T07:43:31.852Z,1.58
2023-05-14T07:45:59.375Z,1.83
2023-05-14T07:48:26.646Z,4.82
2023-05-14T07:50:57.214Z,1.23
2023-05-14T07:53:25.149Z,1.23
2023-05-14T07:55:52.363Z,1.02
2023-05-14T07:58:19.749Z,1.50
2023-05-14T08:00:47.289Z,3.42
2023-05-14T08:03:15.103Z,6.38
2023-05-14T08:05:42.463Z,3.30
2023-05-14T08:08:09.658Z,1.77
2023-05-14T08:10:37.122Z,4.22
2023-05-14T08:13:04.771Z,4.22
2023-05-14T08:15:32.231Z,2.97
2023-05-14T08:18:04.364Z,2.38
2023-05-14T08:20:32.065Z,2.30
2023-05-14T08:22:59.487Z,2.97
2023-05-14T08:25:26.808Z,1.98
2023-05-14T08:27:54.434Z,1.95
2023-05-14T08:30:23.066Z,2.70
2023-05-14T08:32:51.038Z,5.60
2023-05-14T08:35:18.410Z,1.77
2023-05-14T08:37:46.194Z,1.70
2023-05-14T08:40:13.727Z,2.85
2023-05-14T08:42:41.843Z,2.90
2023-05-14T08:45:18.703Z,2.08
2023-05-14T08:47:52.380Z,2.78
2023-05-14T08:50:23.758Z,1.98
2023-05-14T08:52:52.161Z,1.52
2023-05-14T08:55:20.250Z,1.77
2023-05-14T08:57:49.316Z,3.17
2023-05-14T09:00:16.901Z,4.97
2023-05-14T09:02:46.770Z,2.13
2023-05-14T09:05:15.432Z,2.60
2023-05-14T09:07:42.934Z,1.88
2023-05-14T09:10:12.040Z,4.00
2023-05-14T09:12:42.091Z,4.32
2023-05-14T09:15:09.773Z,5.00
2023-05-14T09:17:37.285Z,2.17
2023-05-14T09:20:06.124Z,4.45
2023-05-14T09:22:35.152Z,2.97
2023-05-14T09:25:07.418Z,1.65
2023-05-14T09:27:35.477Z,3.78
2023-05-14T09:30:11.219Z,2.17
2023-05-14T09:32:50.467Z,5.15
2023-05-14T09:35:20.847Z,2.65
2023-05-14T09:37:53.857Z,2.95
2023-05-14T09:40:23.996Z,4.13
2023-05-14T09:42:51.785Z,3.65
2023-05-14T09:45:19.628Z,3.47
2023-05-14T09:47:46.967Z,3.63
2023-05-14T09:50:14.414Z,3.47
2023-05-14T09:52:42.785Z,1.70
2023-05-14T09:55:10.307Z,3.72
2023-05-14T09:57:37.810Z,1.98
2023-05-14T10:00:05.729Z,2.78
2023-05-14T10:02:38.405Z,2.72
2023-05-14T10:07:41.793Z,2.20
2023-05-14T10:10:13.782Z,1.63
2023-05-14T10:12:43.560Z,1.73
2023-05-14T10:15:19.854Z,4.35
2023-05-14T10:17:52.823Z,5.22
2023-05-14T10:20:20.931Z,2.90
2023-05-14T10:22:48.478Z,1.38
2023-05-14T10:25:16.474Z,3.00
2023-05-14T10:27:44.203Z,1.92
2023-05-14T10:30:15.222Z,2.95
2023-05-14T10:32:44.331Z,2.42
2023-05-14T10:35:26.670Z,2.47
2023-05-14T10:37:53.915Z,1.45
2023-05-14T10:40:25.139Z,1.27
2023-05-14T10:42:55.225Z,6.75
2023-05-14T10:45:23.294Z,4.10
2023-05-14T10:47:50.621Z,4.30
2023-05-14T10:50:18.612Z,5.45
2023-05-14T10:52:46.364Z,2.42
2023-05-14T10:55:15.492Z,5.88
2023-05-14T10:57:45.722Z,3.85
2023-05-14T11:00:14.761Z,3.85
2023-05-14T11:02:44.676Z,3.67
2023-05-14T11:05:16.069Z,3.53
2023-05-14T11:07:48.968Z,2.60
2023-05-14T11:10:21.654Z,2.72
2023-05-14T11:15:26.221Z,3.85
2023-05-14T11:17:54.535Z,5.47
2023-05-14T11:20:24.479Z,3.17
2023-05-14T11:22:51.976Z,2.58
2023-05-14T11:25:22.421Z,4.13
2023-05-14T11:27:50.784Z,6.38
2023-05-14T11:30:20.305Z,1.83
2023-05-14T11:32:49.474Z,2.22
2023-05-14T11:35:18.441Z,3.10
2023-05-14T11:37:52.809Z,1.65
2023-05-14T11:40:20.682Z,4.85
2023-05-14T11:42:52.698Z,1.48
2023-05-14T11:45:27.841Z,2.50
2023-05-14T11:47:55.280Z,1.88
2023-05-14T11:50:23.566Z,2.83
2023-05-14T11:52:51.195Z,1.58
2023-05-14T11:55:18.538Z,1.60
2023-05-14T11:57:46.436Z,1.35
2023-05-14T12:00:16.922Z,2.30
2023-05-14T12:02:44.447Z,1.25
2023-05-14T12:05:13.502Z,1.90
2023-05-14T12:07:42.061Z,3.17
2023-05-14T12:10:12.217Z,2.47
2023-05-14T12:12:39.685Z,3.13
2023-05-14T12:15:14.137Z,2.33
2023-05-14T12:17:41.617Z,8.10
2023-05-14T12:20:11.196Z,2.00
2023-05-14T12:22:39.711Z,1.25
2023-05-14T12:25:13.682Z,4.85
2023-05-14T12:27:44.914Z,1.45
2023-05-14T12:30:27.525Z,5.05
2023-05-14T12:32:55.076Z,2.38
2023-05-14T12:35:23.102Z,2.08
2023-05-14T12:37:50.849Z,1.40
2023-05-14T12:40:18.477Z,1.40
2023-05-14T12:42:46.458Z,3.35
2023-05-14T12:45:13.934Z,1.65
2023-05-14T12:47:43.465Z,3.65
2023-05-14T12:50:11.295Z,2.38
2023-05-14T12:52:39.935Z,3.50
2023-05-14T12:55:09.523Z,2.53
2023-05-14T12:57:39.316Z,4.30
2023-05-14T13:00:12.237Z,4.15
2023-05-14T13:02:42.914Z,3.55
2023-05-14T13:05:14.525Z,1.67
2023-05-14T13:07:42.710Z,4.95
2023-05-14T13:10:10.656Z,2.80
2023-05-14T13:12:39.001Z,2.08
2023-05-14T13:15:07.047Z,2.08
2023-05-14T13:17:34.210Z,2.92
2023-05-14T13:20:01.808Z,5.43
2023-05-14T13:22:31.556Z,2.20
2023-05-14T13:24:59.282Z,3.72
2023-05-14T13:27:26.869Z,4.18
2023-05-14T13:29:54.148Z,1.98
2023-05-14T13:32:21.557Z,2.47
2023-05-14T13:34:48.760Z,2.85
2023-05-14T13:37:16.374Z,3.47
2023-05-14T13:39:46.880Z,2.92
2023-05-14T13:42:14.026Z,3.30
2023-05-14T13:44:43.895Z,2.05
2023-05-14T13:47:11.547Z,4.13
2023-05-14T13:49:39.070Z,1.50
2023-05-14T13:52:06.841Z,3.08
2023-05-14T13:54:34.472Z,3.95
2023-05-14T13:57:01.947Z,3.72
2023-05-14T13:59:29.170Z,2.70
2023-05-14T14:01:56.562Z,5.40
2023-05-14T14:04:25.767Z,3.22
2023-05-14T14:06:53.268Z,4.47
2023-05-14T14:09:22.310Z,3.33
2023-05-14T14:11:49.685Z,2.63
2023-05-14T14:14:17.703Z,2.90
2023-05-14T14:16:45.048Z,4.88
2023-05-14T14:19:12.439Z,4.70
2023-05-14T14:21:42.888Z,2.42
2023-05-14T14:24:10.084Z,2.28
2023-05-14T14:26:37.334Z,3.70
2023-05-14T14:29:04.596Z,3.72
2023-05-14T14:31:32.197Z,4.40
2023-05-14T14:33:59.444Z,1.67
2023-05-14T14:36:27.028Z,5.15
2023-05-14T14:38:54.282Z,3.63
2023-05-14T14:41:22.461Z,5.00
2023-05-14T14:43:49.941Z,3.53
2023-05-14T14:46:17.176Z,2.95
2023-05-14T14:48:44.459Z,2.35
2023-05-14T14:51:11.690Z,2.78
2023-05-14T14:53:40.532Z,4.68
2023-05-14T14:56:07.955Z,2.15
2023-05-14T14:58:35.210Z,4.80
2023-05-14T15:01:02.601Z,7.07
2023-05-14T15:03:30.324Z,5.85
2023-05-14T15:05:57.856Z,3.25
2023-05-14T15:08:27.591Z,8.40
2023-05-14T15:10:59.531Z,5.85
2023-05-14T15:13:27.259Z,3.20
2023-05-14T15:15:54.896Z,6.30
2023-05-14T15:18:22.195Z,2.63
2023-05-14T15:20:49.922Z,3.28
2023-05-14T15:23:17.434Z,4.70
2023-05-14T15:25:44.907Z,3.60
2023-05-14T15:28:12.329Z,3.78
2023-05-14T15:30:39.666Z,3.50
2023-05-14T15:33:10.784Z,1.98
2023-05-14T15:35:38.189Z,8.23
2023-05-14T15:38:07.146Z,2.58
2023-05-14T15:40:35.371Z,2.38
2023-05-14T15:43:02.855Z,2.95
2023-05-14T15:45:30.090Z,6.07
2023-05-14T15:47:57.563Z,4.00
2023-05-14T15:50:26.096Z,4.32
2023-05-14T15:52:54.123Z,2.53
2023-05-14T15:55:21.619Z,2.50
2023-05-14T15:57:48.951Z,5.07
2023-05-14T16:00:16.554Z,4.43
2023-05-14T16:02:43.976Z,5.03
2023-05-14T16:05:11.210Z,9.73
2023-05-14T16:07:38.743Z,4.22
2023-05-14T16:10:07.224Z,3.45
2023-05-14T16:12:35.959Z,5.30
2023-05-14T16:15:03.383Z,11.07
2023-05-14T16:17:35.151Z,3.25
2023-05-14T16:20:04.885Z,6.03
2023-05-14T16:22:34.844Z,3.58
2023-05-14T16:25:04.505Z,3.97
2023-05-14T16:27:34.465Z,5.38
2023-05-14T16:30:01.745Z,3.42
2023-05-14T16:32:33.856Z,5.78
2023-05-14T16:35:03.124Z,3.75
2023-05-14T16:37:34.955Z,3.13
2023-05-14T16:40:02.761Z,3.95
2023-05-14T16:42:32.766Z,3.55
2023-05-14T16:45:00.033Z,3.53
2023-05-14T16:47:27.541Z,2.78
2023-05-14T16:49:55.050Z,11.18
2023-05-14T16:52:22.378Z,3.75
2023-05-14T16:54:49.694Z,2.83
2023-05-14T16:57:17.219Z,5.28
2023-05-14T16:59:44.460Z,2.95
2023-05-14T17:02:11.955Z,3.40
2023-05-14T17:04:42.243Z,4.30
2023-05-14T17:07:10.425Z,3.92
2023-05-14T17:09:37.726Z,3.78
2023-05-14T17:12:05.510Z,4.32
2023-05-14T17:14:32.847Z,6.78
2023-05-14T17:17:00.156Z,9.55
2023-05-14T17:19:27.627Z,9.38
2023-05-14T17:21:54.954Z,5.78
2023-05-14T17:24:22.328Z,7.00
2023-05-14T17:26:49.713Z,4.15
2023-05-14T17:29:17.480Z,4.40
2023-05-14T17:31:44.746Z,6.22
2023-05-14T17:34:12.229Z,13.55
2023-05-14T17:36:39.703Z,10.88
2023-05-14T17:39:07.129Z,6.43
2023-05-14T17:41:34.241Z,4.10
2023-05-14T17:44:01.599Z,4.13
2023-05-14T17:46:29.008Z,3.92
2023-05-14T17:48:58.324Z,5.60
2023-05-14T17:51:25.996Z,3.97
2023-05-14T17:53:53.519Z,3.40
2023-05-14T17:56:21.120Z,6.40
2023-05-14T17:58:49.827Z,6.90
2023-05-14T18:01:18.181Z,6.50
2023-05-14T18:03:45.962Z,7.03
2023-05-14T18:06:14.105Z,3.85
2023-05-14T18:08:41.879Z,5.35
2023-05-14T18:11:09.580Z,5.80
2023-05-14T18:13:36.983Z,9.23
2023-05-14T18:16:06.094Z,3.92
2023-05-14T18:18:33.494Z,4.38
2023-05-14T18:21:01.051Z,3.55
2023-05-14T18:23:28.540Z,8.32
2023-05-14T18:25:56.021Z,3.30
2023-05-14T18:28:23.636Z,2.30
2023-05-14T18:30:51.621Z,5.22
2023-05-14T18:33:21.522Z,8.77
2023-05-14T18:35:48.779Z,7.60
2023-05-14T18:38:18.018Z,3.40
2023-05-14T18:40:45.826Z,3.95
2023-05-14T18:43:15.251Z,3.38
2023-05-14T18:45:47.414Z,6.13
2023-05-14T18:48:16.555Z,8.05
2023-05-14T18:50:43.954Z,5.22
2023-05-14T18:53:11.337Z,3.30
2023-05-14T18:55:43.353Z,2.67
2023-05-14T18:58:10.892Z,5.70
2023-05-14T19:00:38.279Z,3.17
2023-05-14T19:03:05.923Z,6.05
2023-05-14T19:05:36.213Z,2.90
2023-05-14T19:08:03.745Z,5.15
2023-05-14T19:10:31.492Z,5.88
2023-05-14T19:12:59.568Z,5.15
2023-05-14T19:15:27.510Z,3.90
2023-05-14T19:17:57.601Z,5.95
2023-05-14T19:20:25.001Z,6.05
2023-05-14T19:22:56.271Z,7.00
2023-05-14T19:25:23.891Z,5.53
2023-05-14T19:27:53.714Z,5.68
2023-05-14T19:30:22.928Z,4.55
2023-05-14T19:32:50.174Z,6.70
2023-05-14T19:35:17.703Z,3.58
2023-05-14T19:37:46.247Z,4.38
2023-05-14T19:40:13.458Z,4.13
2023-05-14T19:42:41.123Z,6.15
2023-05-14T19:45:09.024Z,3.97
2023-05-14T19:47:36.594Z,6.28
2023-05-14T19:50:04.220Z,3.38
2023-05-14T19:52:33.996Z,6.95
2023-05-14T19:55:04.487Z,3.70
2023-05-14T19:57:32.603Z,5.57
2023-05-14T20:00:00.031Z,7.03
2023-05-14T20:02:32.201Z,4.90
2023-05-14T20:04:59.572Z,4.30
2023-05-14T20:07:30.042Z,4.47
2023-05-14T20:09:57.462Z,4.78
2023-05-14T20:12:24.738Z,6.53
2023-05-14T20:14:51.953Z,5.25
2023-05-14T20:17:19.676Z,13.10
2023-05-14T20:19:47.234Z,8.40
2023-05-14T20:22:15.164Z,6.30
2023-05-14T20:24:42.453Z,10.98
2023-05-14T20:27:09.932Z,4.82
2023-05-14T20:29:36.954Z,11.85
2023-05-14T20:32:04.674Z,6.60
2023-05-14T20:34:32.045Z,6.65
2023-05-14T20:36:59.182Z,8.98
2023-05-14T20:39:26.449Z,6.03
2023-05-14T20:41:53.777Z,7.60
2023-05-14T20:44:24.093Z,3.80
2023-05-14T20:46:51.641Z,7.85
2023-05-14T20:49:18.812Z,8.23
2023-05-14T20:51:46.159Z,7.43
2023-05-14T20:54:13.413Z,4.60
2023-05-14T20:56:40.774Z,7.28
2023-05-14T20:59:08.010Z,8.77
2023-05-14T21:01:35.616Z,5.20
2023-05-14T21:04:03.558Z,5.43
2023-05-14T21:06:30.980Z,3.78
2023-05-14T21:09:07.083Z,8.57
2023-05-14T21:11:34.254Z,6.30
2023-05-14T21:14:03.092Z,4.88
2023-05-14T21:16:32.042Z,6.88
2023-05-14T21:18:59.461Z,10.93
2023-05-14T21:21:29.431Z,6.30
2023-05-14T21:23:56.629Z,4.50
2023-05-14T21:26:23.878Z,9.68
2023-05-14T21:28:50.987Z,7.43
2023-05-14T21:31:18.491Z,4.97
2023-05-14T21:33:45.866Z,5.85
2023-05-14T21:36:16.188Z,7.13
2023-05-14T21:38:43.623Z,8.27
2023-05-14T21:41:10.806Z,8.00
2023-05-14T21:43:40.736Z,8.80
2023-05-14T21:46:08.704Z,7.43
2023-05-14T21:48:36.205Z,9.07
2023-05-14T21:51:03.848Z,5.47
2023-05-14T21:53:31.055Z,6.60
2023-05-14T21:55:58.592Z,6.53
2023-05-14T21:58:28.857Z,8.90
2023-05-14T22:00:56.052Z,9.85
2023-05-14T22:03:23.495Z,7.53
2023-05-14T22:05:51.068Z,9.80
2023-05-14T22:08:18.647Z,10.55
2023-05-14T22:10:47.260Z,5.60
2023-05-14T22:13:14.615Z,10.27
2023-05-14T22:15:41.917Z,5.95
2023-05-14T22:18:09.145Z,9.10
2023-05-14T22:20:36.547Z,8.55
2023-05-14T22:23:03.675Z,8.38
2023-05-14T22:25:30.773Z,7.97
2023-05-14T22:27:58.242Z,4.32
2023-05-14T22:30:25.459Z,6.93
2023-05-14T22:32:53.717Z,5.72
2023-05-14T22:35:21.415Z,6.20
2023-05-14T22:37:48.835Z,5.50
2023-05-14T22:40:16.285Z,9.13
2023-05-14T22:42:43.859Z,5.53
2023-05-14T22:45:11.447Z,9.38
2023-05-14T22:47:39.013Z,10.30
2023-05-14T22:50:11.468Z,5.78
2023-05-14T22:52:39.672Z,11.68
2023-05-14T22:55:08.005Z,8.95
2023-05-14T22:57:35.415Z,9.32
2023-05-14T23:00:04.621Z,7.03
2023-05-14T23:02:33.831Z,10.93
2023-05-14T23:05:01.085Z,8.10
2023-05-14T23:07:31.059Z,9.18
2023-05-14T23:09:58.175Z,13.70
2023-05-14T23:12:25.450Z,11.32
2023-05-14T23:14:52.828Z,13.40
2023-05-14T23:17:20.147Z,10.38
2023-05-14T23:19:47.423Z,10.10
2023-05-14T23:22:14.716Z,11.80
2023-05-14T23:24:42.072Z,9.68
2023-05-14T23:27:11.795Z,15.68
2023-05-14T23:29:38.986Z,13.45
2023-05-14T23:32:06.649Z,12.70
2023-05-14T23:34:34.760Z,20.88
2023-05-14T23:37:02.518Z,15.13
2023-05-14T23:39:30.577Z,12.85
2023-05-14T23:41:57.846Z,13.43
2023-05-14T23:44:24.911Z,12.60
2023-05-14T23:46:52.171Z,15.57
2023-05-14T23:49:20.112Z,15.48
2023-05-14T23:51:47.380Z,14.38
2023-05-14T23:54:14.494Z,15.43
2023-05-14T23:56:41.698Z,15.50
2023-05-14T23:59:09.332Z,16.55
